createdAt,value
2022-08-20T00:00:40.138Z,57
2022-08-20T00:04:40.463Z,57
2022-08-20T00:08:39.373Z,57
2022-08-20T00:12:40.152Z,57
2022-08-20T00:16:40.696Z,57
2022-08-20T00:20:40.434Z,57
2022-08-20T00:24:41.074Z,57
2022-08-20T00:28:39.751Z,57
2022-08-20T00:32:40.518Z,57
2022-08-20T00:36:41.055Z,57
2022-08-20T00:40:40.148Z,57
2022-08-20T00:44:41.125Z,57
2022-08-20T00:48:40.717Z,57
2022-08-20T00:52:40.249Z,57
2022-08-20T00:56:41.078Z,57
2022-08-20T01:00:40.190Z,57
2022-08-20T01:04:40.371Z,57
2022-08-20T01:08:40.769Z,57
2022-08-20T01:12:39.655Z,57
2022-08-20T01:16:40.757Z,57
2022-08-20T01:20:40.622Z,57
2022-08-20T01:24:40.712Z,57
2022-08-20T01:28:39.858Z,57
2022-08-20T01:32:40.155Z,57
2022-08-20T01:36:44.279Z,57
2022-08-20T01:40:41.159Z,57
2022-08-20T01:44:39.469Z,57
2022-08-20T01:48:40.782Z,57
2022-08-20T01:52:40.020Z,57
2022-08-20T01:56:40.532Z,57
2022-08-20T02:00:41.194Z,57
2022-08-20T02:04:39.859Z,57
2022-08-20T02:08:40.499Z,57
2022-08-20T02:12:39.454Z,57
2022-08-20T02:16:40.238Z,57
2022-08-20T02:20:40.943Z,57
2022-08-20T02:24:40.369Z,57
2022-08-20T02:28:40.816Z,57
2022-08-20T02:32:41.244Z,57
2022-08-20T02:36:40.422Z,57
2022-08-20T02:40:41.102Z,57
2022-08-20T02:44:39.831Z,57
2022-08-20T02:48:41.227Z,57
2022-08-20T02:52:39.814Z,57
2022-08-20T02:56:39.839Z,57
2022-08-20T03:00:40.501Z,57
2022-08-20T03:04:41.146Z,57
2022-08-20T03:08:40.096Z,57
2022-08-20T03:12:40.434Z,57
2022-08-20T03:16:41.111Z,57
2022-08-20T03:20:40.462Z,57
2022-08-20T03:24:39.541Z,57
2022-08-20T03:28:40.770Z,57
2022-08-20T03:32:39.444Z,57
2022-08-20T03:36:40.240Z,57
2022-08-20T03:40:41.002Z,57
2022-08-20T03:44:39.595Z,57
2022-08-20T03:48:40.844Z,57
2022-08-20T03:52:39.627Z,57
2022-08-20T03:56:41.385Z,57
2022-08-20T04:00:40.449Z,57
2022-08-20T04:04:39.561Z,57
2022-08-20T04:08:40.656Z,57
2022-08-20T04:12:40.308Z,57
2022-08-20T04:16:41.112Z,57
2022-08-20T04:20:41.051Z,57
2022-08-20T04:24:39.905Z,57
2022-08-20T04:28:39.917Z,57
2022-08-20T04:32:40.019Z,57
2022-08-20T04:36:40.257Z,57
2022-08-20T04:40:40.743Z,57
2022-08-20T04:44:41.341Z,57
2022-08-20T04:48:39.736Z,57
2022-08-20T04:52:40.288Z,57
2022-08-20T04:56:41.269Z,57
2022-08-20T05:00:40.136Z,57
2022-08-20T05:04:40.112Z,57
2022-08-20T05:08:40.742Z,57
2022-08-20T05:12:40.382Z,57
2022-08-20T05:16:40.002Z,57
2022-08-20T05:20:40.869Z,57
2022-08-20T05:24:39.459Z,57
2022-08-20T05:28:58.065Z,57
2022-08-20T05:32:44.530Z,57
2022-08-20T05:36:40.305Z,57
2022-08-20T05:40:40.692Z,57
2022-08-20T05:44:39.660Z,57
2022-08-20T05:48:40.733Z,57
2022-08-20T05:52:39.962Z,57
2022-08-20T05:56:40.840Z,57
2022-08-20T06:00:39.752Z,57
2022-08-20T06:04:40.380Z,57
2022-08-20T06:08:40.324Z,57
2022-08-20T06:12:41.405Z,57
2022-08-20T06:16:39.498Z,57
2022-08-20T06:20:41.151Z,32.3
2022-08-20T06:24:41.023Z,31.2
2022-08-20T06:28:39.744Z,30.7
2022-08-20T06:32:40.343Z,30
2022-08-20T06:36:40.899Z,26.8
2022-08-20T06:40:39.891Z,26.2
2022-08-20T06:44:39.621Z,25.8
2022-08-20T06:48:40.288Z,25.5
2022-08-20T06:52:51.976Z,25.2
2022-08-20T06:56:40.510Z,25.1
2022-08-20T07:00:39.754Z,24.9
2022-08-20T07:04:39.631Z,24.4
2022-08-20T07:08:40.311Z,24.3
2022-08-20T07:12:41.458Z,24.3
2022-08-20T07:16:39.721Z,24
2022-08-20T07:20:40.080Z,23.8
2022-08-20T07:24:41.984Z,23.3
2022-08-20T07:28:41.307Z,23
2022-08-20T07:32:45.164Z,22.8
2022-08-20T07:36:39.676Z,21.5
2022-08-20T07:40:40.851Z,20.7
2022-08-20T07:44:39.361Z,20.4
2022-08-20T07:48:40.275Z,20.2
2022-08-20T07:52:40.781Z,19.9
2022-08-20T07:56:39.694Z,19.8
2022-08-20T08:00:40.698Z,19.5
2022-08-20T08:04:39.493Z,19.3
2022-08-20T08:08:39.952Z,2.8
2022-08-20T08:12:40.871Z,99.9
2022-08-20T08:16:39.709Z,99.9
2022-08-20T08:20:46.881Z,99.9
2022-08-20T08:24:40.246Z,99.9
2022-08-20T08:28:40.344Z,99.9
2022-08-20T08:32:40.741Z,99.9
2022-08-20T08:36:39.575Z,99.9
2022-08-20T08:40:39.624Z,99.9
2022-08-20T08:44:41.135Z,99.9
2022-08-20T08:48:39.518Z,99.9
2022-08-20T08:52:40.904Z,99.9
2022-08-20T08:56:40.632Z,99.9
2022-08-20T09:00:44.832Z,99.9
2022-08-20T09:04:40.297Z,57
2022-08-20T09:08:41.010Z,57
2022-08-20T09:12:42.352Z,57
2022-08-20T09:16:53.150Z,57
2022-08-20T09:20:39.739Z,57
2022-08-20T09:24:41.040Z,57
2022-08-20T09:28:40.867Z,57
2022-08-20T09:32:40.468Z,57
2022-08-20T09:36:41.213Z,57
2022-08-20T09:40:40.414Z,57
2022-08-20T09:44:41.067Z,57
2022-08-20T09:48:40.802Z,57
2022-08-20T09:52:40.850Z,57
2022-08-20T09:56:39.792Z,57
2022-08-20T10:00:40.606Z,57
2022-08-20T10:04:40.113Z,57
2022-08-20T10:08:40.554Z,57
2022-08-20T10:12:40.330Z,57
2022-08-20T10:16:40.588Z,57
2022-08-20T10:20:40.029Z,57
2022-08-20T10:24:40.646Z,57
2022-08-20T10:28:41.331Z,57
2022-08-20T10:32:40.133Z,57
2022-08-20T10:36:39.858Z,57
2022-08-20T10:40:41.017Z,57
2022-08-20T10:44:39.568Z,57
2022-08-20T10:48:40.001Z,57
2022-08-20T10:52:41.223Z,57
2022-08-20T10:56:39.482Z,57
2022-08-20T11:00:41.549Z,57
2022-08-20T11:04:39.972Z,57
2022-08-20T11:08:41.242Z,57
2022-08-20T11:12:39.612Z,57
2022-08-20T11:16:40.284Z,57
2022-08-20T11:20:40.989Z,57
2022-08-20T11:24:40.550Z,57
2022-08-20T11:28:41.168Z,57
2022-08-20T11:32:39.952Z,57
2022-08-20T11:36:41.406Z,57
2022-08-20T11:40:40.645Z,57
2022-08-20T11:44:41.169Z,57
2022-08-20T11:48:40.063Z,57
2022-08-20T11:52:41.053Z,57
2022-08-20T11:56:40.212Z,57
2022-08-20T12:00:40.580Z,57
2022-08-20T12:04:41.076Z,57
2022-08-20T12:08:40.209Z,57
2022-08-20T12:12:40.497Z,57
2022-08-20T12:16:40.633Z,57
2022-08-20T12:20:40.605Z,57
2022-08-20T12:24:40.362Z,57
2022-08-20T12:28:40.245Z,57
2022-08-20T12:32:41.264Z,57
2022-08-20T12:36:39.643Z,57
2022-08-20T12:40:40.765Z,57
2022-08-20T12:44:39.628Z,96.9
2022-08-20T12:48:40.134Z,57
2022-08-20T12:52:40.981Z,57
2022-08-20T12:56:39.894Z,57
2022-08-20T13:00:41.267Z,57
2022-08-20T13:04:39.879Z,57
2022-08-20T13:08:40.413Z,57
2022-08-20T13:12:40.567Z,57
2022-08-20T13:16:41.299Z,57
2022-08-20T13:20:40.604Z,57
2022-08-20T13:24:41.202Z,57
2022-08-20T13:28:39.943Z,57
2022-08-20T13:32:39.414Z,57
2022-08-20T13:36:41.317Z,57
2022-08-20T13:40:40.236Z,57
2022-08-20T13:44:40.246Z,57
2022-08-20T13:48:40.954Z,57
2022-08-20T13:52:49.468Z,57
2022-08-20T13:56:40.029Z,57
2022-08-20T14:00:41.127Z,99.9
2022-08-20T14:04:40.470Z,57
2022-08-20T14:08:40.576Z,57
2022-08-20T14:12:40.736Z,57
2022-08-20T14:16:40.368Z,57
2022-08-20T14:20:40.843Z,57
2022-08-20T14:24:39.529Z,57
2022-08-20T14:28:40.557Z,57
2022-08-20T14:32:40.491Z,57
2022-08-20T14:36:41.249Z,57
2022-08-20T14:40:40.368Z,57
2022-08-20T14:44:41.263Z,57
2022-08-20T14:48:39.781Z,57
2022-08-20T14:52:40.881Z,57
2022-08-20T14:56:39.669Z,57
2022-08-20T15:00:40.141Z,57
2022-08-20T15:04:39.862Z,57
2022-08-20T15:08:40.674Z,57
2022-08-20T15:12:39.365Z,57
2022-08-20T15:16:40.615Z,57
2022-08-20T15:20:39.574Z,57
2022-08-20T15:24:40.096Z,57
2022-08-20T15:28:40.480Z,57
2022-08-20T15:32:39.429Z,57
2022-08-20T15:36:41.513Z,57
2022-08-20T15:40:40.371Z,57
2022-08-20T15:44:40.301Z,57
2022-08-20T15:48:40.941Z,57
2022-08-20T15:52:42.224Z,57
2022-08-20T15:56:39.370Z,96.9
2022-08-20T16:00:40.282Z,96.9
2022-08-20T16:04:40.198Z,96.9
2022-08-20T16:08:40.848Z,96.9
2022-08-20T16:12:39.737Z,96.9
2022-08-20T16:16:40.846Z,96.9
2022-08-20T16:20:40.489Z,96.9
2022-08-20T16:24:39.736Z,57
2022-08-20T16:28:40.429Z,57
2022-08-20T16:32:41.187Z,57
2022-08-20T16:36:40.342Z,57
2022-08-20T16:40:40.669Z,57
2022-08-20T16:44:39.724Z,96.9
2022-08-20T16:48:41.045Z,96.9
2022-08-20T16:52:39.687Z,96.9
2022-08-20T16:56:40.292Z,96.9
2022-08-20T17:00:45.218Z,96.9
2022-08-20T17:04:40.216Z,96.9
2022-08-20T17:08:39.910Z,96.9
2022-08-20T17:12:40.341Z,96.9
2022-08-20T17:16:41.049Z,96.9
2022-08-20T17:20:40.139Z,96.9
2022-08-20T17:24:39.634Z,96.9
2022-08-20T17:28:40.961Z,96.9
2022-08-20T17:32:40.414Z,96.9
2022-08-20T17:36:39.743Z,57
2022-08-20T17:40:40.391Z,57
2022-08-20T17:44:40.725Z,57
2022-08-20T17:48:45.494Z,57
2022-08-20T17:52:41.251Z,57
2022-08-20T17:56:41.649Z,57
2022-08-20T18:00:40.678Z,57
2022-08-20T18:04:40.196Z,57
2022-08-20T18:08:41.041Z,57
2022-08-20T18:12:40.165Z,57
2022-08-20T18:16:39.582Z,57
2022-08-20T18:20:40.373Z,57
2022-08-20T18:24:41.130Z,57
2022-08-20T18:28:39.436Z,57
2022-08-20T18:32:40.924Z,57
2022-08-20T18:36:40.644Z,57
2022-08-20T18:40:40.091Z,57
2022-08-20T18:44:40.619Z,57
2022-08-20T18:48:40.557Z,57
2022-08-20T18:52:41.309Z,57
2022-08-20T18:56:40.561Z,57
2022-08-20T19:00:39.642Z,57
2022-08-20T19:04:40.486Z,57
2022-08-20T19:08:40.538Z,57
2022-08-20T19:12:41.252Z,57
2022-08-20T19:16:39.920Z,57
2022-08-20T19:20:40.184Z,57
2022-08-20T19:24:43.646Z,57
2022-08-20T19:28:41.128Z,57
2022-08-20T19:32:45.470Z,57
2022-08-20T19:36:40.412Z,57
2022-08-20T19:40:45.961Z,57
2022-08-20T19:44:39.694Z,57
2022-08-20T19:48:40.701Z,57
2022-08-20T19:52:39.906Z,57
2022-08-20T19:56:40.962Z,57
2022-08-20T20:00:39.874Z,57
2022-08-20T20:04:41.126Z,57
2022-08-20T20:08:41.197Z,57
2022-08-20T20:12:39.804Z,57
2022-08-20T20:16:40.487Z,57
2022-08-20T20:20:40.335Z,57
2022-08-20T20:24:40.269Z,57
2022-08-20T20:28:41.250Z,57
2022-08-20T20:32:39.807Z,57
2022-08-20T20:36:40.594Z,57
2022-08-20T20:40:40.662Z,57
2022-08-20T20:44:39.877Z,57
2022-08-20T20:48:40.470Z,57
2022-08-20T20:52:39.749Z,57
2022-08-20T20:56:39.679Z,57
2022-08-20T21:00:40.466Z,57
2022-08-20T21:04:42.665Z,57
2022-08-20T21:08:39.353Z,57
2022-08-20T21:12:40.170Z,57
2022-08-20T21:16:40.542Z,57
2022-08-20T21:20:41.299Z,57
2022-08-20T21:24:41.158Z,57
2022-08-20T21:28:39.786Z,57
2022-08-20T21:32:40.799Z,57
2022-08-20T21:36:40.256Z,57
2022-08-20T21:40:40.586Z,57
2022-08-20T21:44:40.205Z,57
2022-08-20T21:48:41.728Z,57
2022-08-20T21:52:43.573Z,57
2022-08-20T21:56:40.662Z,57
2022-08-20T22:00:40.149Z,57
2022-08-20T22:08:39.573Z,99.9
2022-08-20T22:12:40.582Z,99.9
2022-08-20T22:16:42.321Z,99.9
2022-08-20T22:20:39.621Z,99.9
2022-08-20T22:24:39.825Z,99.9
2022-08-20T22:28:40.552Z,99.9
2022-08-20T22:32:52.248Z,99.9
2022-08-20T22:36:39.767Z,99.9
2022-08-20T22:40:39.435Z,57
2022-08-20T22:44:40.743Z,57
2022-08-20T22:48:39.341Z,57
2022-08-20T22:52:40.429Z,57
2022-08-20T22:56:41.081Z,57
2022-08-20T23:00:40.031Z,57
2022-08-20T23:04:40.912Z,57
2022-08-20T23:08:40.001Z,57
2022-08-20T23:12:41.009Z,57
2022-08-20T23:16:40.137Z,57
2022-08-20T23:20:39.840Z,57
2022-08-20T23:24:41.073Z,57
2022-08-20T23:28:40.542Z,57
2022-08-20T23:32:39.489Z,57
2022-08-20T23:36:39.935Z,57
2022-08-20T23:40:40.002Z,57
2022-08-20T23:44:41.276Z,57
2022-08-20T23:48:40.257Z,57
2022-08-20T23:52:39.944Z,57
2022-08-20T23:56:41.030Z,57
